sensor_id;sensor_type;location;lat;lon;timestamp;temperature;humidity
29917;DHT22;16786;49.466;11.068;2023-02-01T00:01:08;4.20;99.90
29917;DHT22;16786;49.466;11.068;2023-02-01T00:03:35;4.10;99.90
29917;DHT22;16786;49.466;11.068;2023-02-01T00:06:03;4.10;99.90
29917;DHT22;16786;49.466;11.068;2023-02-01T00:08:31;4.10;99.90
29917;DHT22;16786;49.466;11.068;2023-02-01T00:11:00;4.10;99.90
29917;DHT22;16786;49.466;11.068;2023-02-01T00:13:29;4.20;99.90
29917;DHT22;16786;49.466;11.068;2023-02-01T00:16:12;4.10;99.90
29917;DHT22;16786;49.466;11.068;2023-02-01T00:18:39;4.10;99.90
29917;DHT22;16786;49.466;11.068;2023-02-01T00:21:07;4.10;99.90
29917;DHT22;16786;49.466;11.068;2023-02-01T00:23:35;4.20;99.90
29917;DHT22;16786;49.466;11.068;2023-02-01T00:26:04;4.20;99.90
29917;DHT22;16786;49.466;11.068;2023-02-01T00:28:32;4.20;99.90
29917;DHT22;16786;49.466;11.068;2023-02-01T00:31:01;4.30;99.90
29917;DHT22;16786;49.466;11.068;2023-02-01T00:33:30;4.20;99.90
29917;DHT22;16786;49.466;11.068;2023-02-01T00:35:59;4.30;99.90
29917;DHT22;16786;49.466;11.068;2023-02-01T00:38:28;4.30;99.90
29917;DHT22;16786;49.466;11.068;2023-02-01T00:41:06;4.30;99.90
29917;DHT22;16786;49.466;11.068;2023-02-01T00:43:34;4.20;99.90
29917;DHT22;16786;49.466;11.068;2023-02-01T00:46:01;4.20;99.90
29917;DHT22;16786;49.466;11.068;2023-02-01T00:48:29;4.20;99.90
29917;DHT22;16786;49.466;11.068;2023-02-01T00:51:01;4.30;99.90
29917;DHT22;16786;49.466;11.068;2023-02-01T00:53:29;4.30;99.90
29917;DHT22;16786;49.466;11.068;2023-02-01T00:55:56;4.40;99.90
29917;DHT22;16786;49.466;11.068;2023-02-01T00:58:25;4.40;99.90
29917;DHT22;16786;49.466;11.068;2023-02-01T01:03:31;4.40;99.90
29917;DHT22;16786;49.466;11.068;2023-02-01T01:06:02;4.40;99.90
29917;DHT22;16786;49.466;11.068;2023-02-01T01:08:30;4.40;99.90
29917;DHT22;16786;49.466;11.068;2023-02-01T01:10:58;4.40;99.90
29917;DHT22;16786;49.466;11.068;2023-02-01T01:13:25;4.40;99.90
29917;DHT22;16786;49.466;11.068;2023-02-01T01:15:54;4.40;99.90
29917;DHT22;16786;49.466;11.068;2023-02-01T01:18:21;4.30;99.90
29917;DHT22;16786;49.466;11.068;2023-02-01T01:20:48;4.40;99.90
29917;DHT22;16786;49.466;11.068;2023-02-01T01:23:16;4.30;99.90
29917;DHT22;16786;49.466;11.068;2023-02-01T01:25:43;4.30;99.90
29917;DHT22;16786;49.466;11.068;2023-02-01T01:28:10;4.30;99.90
29917;DHT22;16786;49.466;11.068;2023-02-01T01:30:38;4.30;99.90
29917;DHT22;16786;49.466;11.068;2023-02-01T01:33:05;4.30;99.90
29917;DHT22;16786;49.466;11.068;2023-02-01T01:35:33;4.30;99.90
29917;DHT22;16786;49.466;11.068;2023-02-01T01:38:01;4.30;99.90
29917;DHT22;16786;49.466;11.068;2023-02-01T01:40:29;4.20;99.90
29917;DHT22;16786;49.466;11.068;2023-02-01T01:42:57;4.20;99.90
29917;DHT22;16786;49.466;11.068;2023-02-01T01:45:26;4.20;99.90
29917;DHT22;16786;49.466;11.068;2023-02-01T01:47:58;4.20;99.90
29917;DHT22;16786;49.466;11.068;2023-02-01T01:50:35;4.20;99.90
29917;DHT22;16786;49.466;11.068;2023-02-01T01:53:05;4.20;99.90
29917;DHT22;16786;49.466;11.068;2023-02-01T01:55:39;4.30;99.90
29917;DHT22;16786;49.466;11.068;2023-02-01T01:58:11;4.30;99.90
29917;DHT22;16786;49.466;11.068;2023-02-01T02:00:39;4.30;99.90
29917;DHT22;16786;49.466;11.068;2023-02-01T02:05:38;4.30;99.90
29917;DHT22;16786;49.466;11.068;2023-02-01T02:08:06;4.30;99.90
29917;DHT22;16786;49.466;11.068;2023-02-01T02:10:33;4.30;99.90
29917;DHT22;16786;49.466;11.068;2023-02-01T02:13:19;4.30;99.90
29917;DHT22;16786;49.466;11.068;2023-02-01T02:16:08;4.30;99.90
29917;DHT22;16786;49.466;11.068;2023-02-01T02:35:30;4.40;99.90
29917;DHT22;16786;49.466;11.068;2023-02-01T02:38:36;4.40;99.90
29917;DHT22;16786;49.466;11.068;2023-02-01T02:41:50;4.40;99.90
29917;DHT22;16786;49.466;11.068;2023-02-01T02:44:54;4.40;99.90
29917;DHT22;16786;49.466;11.068;2023-02-01T02:48:02;4.40;99.90
29917;DHT22;16786;49.466;11.068;2023-02-01T02:50:41;4.40;99.90
29917;DHT22;16786;49.466;11.068;2023-02-01T02:54:13;4.30;99.90
29917;DHT22;16786;49.466;11.068;2023-02-01T02:57:05;4.30;99.90
29917;DHT22;16786;49.466;11.068;2023-02-01T02:59:55;4.30;99.90
29917;DHT22;16786;49.466;11.068;2023-02-01T03:02:43;4.30;99.90
29917;DHT22;16786;49.466;11.068;2023-02-01T03:05:40;4.30;99.90
29917;DHT22;16786;49.466;11.068;2023-02-01T03:08:16;4.20;99.90
29917;DHT22;16786;49.466;11.068;2023-02-01T03:18:42;4.30;99.90
29917;DHT22;16786;49.466;11.068;2023-02-01T03:21:27;4.30;99.90
29917;DHT22;16786;49.466;11.068;2023-02-01T03:24:00;4.30;99.90
29917;DHT22;16786;49.466;11.068;2023-02-01T03:26:31;4.20;99.90
29917;DHT22;16786;49.466;11.068;2023-02-01T03:29:11;4.10;99.90
29917;DHT22;16786;49.466;11.068;2023-02-01T03:31:42;4.20;99.90
29917;DHT22;16786;49.466;11.068;2023-02-01T03:34:11;4.10;99.90
29917;DHT22;16786;49.466;11.068;2023-02-01T03:36:48;4.10;99.90
29917;DHT22;16786;49.466;11.068;2023-02-01T03:39:32;4.20;99.90
29917;DHT22;16786;49.466;11.068;2023-02-01T03:42:50;4.10;99.90
29917;DHT22;16786;49.466;11.068;2023-02-01T03:45:07;4.20;99.90
29917;DHT22;16786;49.466;11.068;2023-02-01T03:47:40;4.20;99.90
29917;DHT22;16786;49.466;11.068;2023-02-01T03:50:16;4.20;99.90
29917;DHT22;16786;49.466;11.068;2023-02-01T03:53:05;4.20;99.90
29917;DHT22;16786;49.466;11.068;2023-02-01T03:55:35;4.20;99.90
29917;DHT22;16786;49.466;11.068;2023-02-01T03:58:07;4.20;99.90
29917;DHT22;16786;49.466;11.068;2023-02-01T04:00:35;4.20;99.90
29917;DHT22;16786;49.466;11.068;2023-02-01T04:03:04;4.30;99.90
29917;DHT22;16786;49.466;11.068;2023-02-01T04:05:32;4.20;99.90
29917;DHT22;16786;49.466;11.068;2023-02-01T04:08:06;4.30;99.90
29917;DHT22;16786;49.466;11.068;2023-02-01T04:10:34;4.40;99.90
29917;DHT22;16786;49.466;11.068;2023-02-01T04:13:01;4.30;99.90
29917;DHT22;16786;49.466;11.068;2023-02-01T04:15:28;4.30;99.90
29917;DHT22;16786;49.466;11.068;2023-02-01T04:17:55;4.30;99.90
29917;DHT22;16786;49.466;11.068;2023-02-01T04:20:23;4.30;99.90
29917;DHT22;16786;49.466;11.068;2023-02-01T04:22:51;4.30;99.90
29917;DHT22;16786;49.466;11.068;2023-02-01T04:25:18;4.40;99.90
29917;DHT22;16786;49.466;11.068;2023-02-01T04:27:46;4.30;99.90
29917;DHT22;16786;49.466;11.068;2023-02-01T04:30:14;4.40;99.90
29917;DHT22;16786;49.466;11.068;2023-02-01T04:32:41;4.40;99.90
29917;DHT22;16786;49.466;11.068;2023-02-01T04:35:09;4.40;99.90
29917;DHT22;16786;49.466;11.068;2023-02-01T04:37:36;4.40;99.90
29917;DHT22;16786;49.466;11.068;2023-02-01T04:40:04;4.50;99.90
29917;DHT22;16786;49.466;11.068;2023-02-01T04:42:31;4.40;99.90
29917;DHT22;16786;49.466;11.068;2023-02-01T04:44:59;4.30;99.90
29917;DHT22;16786;49.466;11.068;2023-02-01T04:47:26;4.20;99.90
29917;DHT22;16786;49.466;11.068;2023-02-01T04:49:53;4.20;99.90
29917;DHT22;16786;49.466;11.068;2023-02-01T04:52:21;4.10;99.90
29917;DHT22;16786;49.466;11.068;2023-02-01T04:54:48;4.10;99.90
29917;DHT22;16786;49.466;11.068;2023-02-01T04:57:15;4.10;99.90
29917;DHT22;16786;49.466;11.068;2023-02-01T04:59:42;4.10;99.90
29917;DHT22;16786;49.466;11.068;2023-02-01T05:02:10;4.10;99.90
29917;DHT22;16786;49.466;11.068;2023-02-01T05:04:37;4.00;99.90
29917;DHT22;16786;49.466;11.068;2023-02-01T05:07:04;4.00;99.90
29917;DHT22;16786;49.466;11.068;2023-02-01T05:09:32;4.00;99.90
29917;DHT22;16786;49.466;11.068;2023-02-01T05:11:59;4.00;99.90
29917;DHT22;16786;49.466;11.068;2023-02-01T05:14:45;3.90;99.90
29917;DHT22;16786;49.466;11.068;2023-02-01T05:17:13;4.00;99.90
29917;DHT22;16786;49.466;11.068;2023-02-01T05:19:40;4.00;99.90
29917;DHT22;16786;49.466;11.068;2023-02-01T05:22:07;4.00;99.90
29917;DHT22;16786;49.466;11.068;2023-02-01T05:24:34;3.90;99.90
29917;DHT22;16786;49.466;11.068;2023-02-01T05:27:02;3.90;99.90
29917;DHT22;16786;49.466;11.068;2023-02-01T05:29:29;3.90;99.90
29917;DHT22;16786;49.466;11.068;2023-02-01T05:31:56;3.90;99.90
29917;DHT22;16786;49.466;11.068;2023-02-01T05:34:31;3.80;99.90
29917;DHT22;16786;49.466;11.068;2023-02-01T05:36:58;3.70;99.90
29917;DHT22;16786;49.466;11.068;2023-02-01T05:39:26;3.70;99.90
29917;DHT22;16786;49.466;11.068;2023-02-01T05:41:53;3.70;99.90
29917;DHT22;16786;49.466;11.068;2023-02-01T05:44:20;3.70;99.90
29917;DHT22;16786;49.466;11.068;2023-02-01T05:46:47;3.70;99.90
29917;DHT22;16786;49.466;11.068;2023-02-01T05:49:16;3.70;99.90
29917;DHT22;16786;49.466;11.068;2023-02-01T05:51:43;3.70;99.90
29917;DHT22;16786;49.466;11.068;2023-02-01T05:54:10;3.60;99.90
29917;DHT22;16786;49.466;11.068;2023-02-01T05:56:38;3.60;99.90
29917;DHT22;16786;49.466;11.068;2023-02-01T05:59:05;3.60;99.90
29917;DHT22;16786;49.466;11.068;2023-02-01T06:01:32;3.60;99.90
29917;DHT22;16786;49.466;11.068;2023-02-01T06:03:59;3.60;99.90
29917;DHT22;16786;49.466;11.068;2023-02-01T06:06:27;3.50;99.90
29917;DHT22;16786;49.466;11.068;2023-02-01T06:08:54;3.50;99.90
29917;DHT22;16786;49.466;11.068;2023-02-01T06:11:21;3.40;99.90
29917;DHT22;16786;49.466;11.068;2023-02-01T06:13:59;3.50;99.90
29917;DHT22;16786;49.466;11.068;2023-02-01T06:16:27;3.40;99.90
29917;DHT22;16786;49.466;11.068;2023-02-01T06:18:54;3.40;99.90
29917;DHT22;16786;49.466;11.068;2023-02-01T06:21:21;3.40;99.90
29917;DHT22;16786;49.466;11.068;2023-02-01T06:23:52;3.50;99.90
29917;DHT22;16786;49.466;11.068;2023-02-01T06:26:20;3.40;99.90
29917;DHT22;16786;49.466;11.068;2023-02-01T06:28:48;3.50;99.90
29917;DHT22;16786;49.466;11.068;2023-02-01T06:31:15;3.40;99.90
29917;DHT22;16786;49.466;11.068;2023-02-01T06:33:43;3.50;99.90
29917;DHT22;16786;49.466;11.068;2023-02-01T06:36:11;3.50;99.90
29917;DHT22;16786;49.466;11.068;2023-02-01T06:38:42;3.60;99.90
29917;DHT22;16786;49.466;11.068;2023-02-01T06:41:09;3.50;99.90
29917;DHT22;16786;49.466;11.068;2023-02-01T06:43:38;3.50;99.90
29917;DHT22;16786;49.466;11.068;2023-02-01T06:46:08;3.60;99.90
29917;DHT22;16786;49.466;11.068;2023-02-01T06:48:36;3.50;99.90
29917;DHT22;16786;49.466;11.068;2023-02-01T06:51:04;3.50;99.90
29917;DHT22;16786;49.466;11.068;2023-02-01T06:53:32;3.50;99.90
29917;DHT22;16786;49.466;11.068;2023-02-01T06:56:01;3.60;99.90
29917;DHT22;16786;49.466;11.068;2023-02-01T06:58:30;3.60;99.90
29917;DHT22;16786;49.466;11.068;2023-02-01T07:00:58;3.60;99.90
29917;DHT22;16786;49.466;11.068;2023-02-01T07:03:31;3.60;99.90
29917;DHT22;16786;49.466;11.068;2023-02-01T07:05:58;3.60;99.90
29917;DHT22;16786;49.466;11.068;2023-02-01T07:08:30;3.60;99.90
29917;DHT22;16786;49.466;11.068;2023-02-01T07:11:01;3.50;99.90
29917;DHT22;16786;49.466;11.068;2023-02-01T07:13:28;3.50;99.90
29917;DHT22;16786;49.466;11.068;2023-02-01T07:15:58;3.50;99.90
29917;DHT22;16786;49.466;11.068;2023-02-01T07:18:27;3.60;99.90
29917;DHT22;16786;49.466;11.068;2023-02-01T07:20:55;3.60;99.90
29917;DHT22;16786;49.466;11.068;2023-02-01T07:23:23;3.50;99.90
29917;DHT22;16786;49.466;11.068;2023-02-01T07:25:55;3.60;99.90
29917;DHT22;16786;49.466;11.068;2023-02-01T07:28:22;3.60;99.90
29917;DHT22;16786;49.466;11.068;2023-02-01T07:30:50;3.60;99.90
29917;DHT22;16786;49.466;11.068;2023-02-01T07:33:19;3.60;99.90
29917;DHT22;16786;49.466;11.068;2023-02-01T07:35:48;3.60;99.90
29917;DHT22;16786;49.466;11.068;2023-02-01T07:38:16;3.70;99.90
29917;DHT22;16786;49.466;11.068;2023-02-01T07:40:43;3.70;99.90
29917;DHT22;16786;49.466;11.068;2023-02-01T07:43:11;3.80;99.90
29917;DHT22;16786;49.466;11.068;2023-02-01T07:45:38;3.70;99.90
29917;DHT22;16786;49.466;11.068;2023-02-01T07:48:05;3.80;99.90
29917;DHT22;16786;49.466;11.068;2023-02-01T07:50:33;3.90;99.90
29917;DHT22;16786;49.466;11.068;2023-02-01T07:53:01;3.90;99.90
29917;DHT22;16786;49.466;11.068;2023-02-01T07:55:28;3.90;99.90
29917;DHT22;16786;49.466;11.068;2023-02-01T07:57:59;4.00;99.90
29917;DHT22;16786;49.466;11.068;2023-02-01T08:00:26;4.00;99.90
29917;DHT22;16786;49.466;11.068;2023-02-01T08:03:12;4.10;99.90
29917;DHT22;16786;49.466;11.068;2023-02-01T08:05:40;4.10;99.90
29917;DHT22;16786;49.466;11.068;2023-02-01T08:08:08;4.20;99.90
29917;DHT22;16786;49.466;11.068;2023-02-01T08:10:35;4.30;99.90
29917;DHT22;16786;49.466;11.068;2023-02-01T08:13:03;4.30;99.90
29917;DHT22;16786;49.466;11.068;2023-02-01T08:15:30;4.40;99.90
29917;DHT22;16786;49.466;11.068;2023-02-01T08:17:57;4.40;99.90
29917;DHT22;16786;49.466;11.068;2023-02-01T08:20:25;4.40;99.90
29917;DHT22;16786;49.466;11.068;2023-02-01T08:22:54;4.40;99.90
29917;DHT22;16786;49.466;11.068;2023-02-01T08:25:23;4.40;99.90
29917;DHT22;16786;49.466;11.068;2023-02-01T08:27:50;4.50;99.90
29917;DHT22;16786;49.466;11.068;2023-02-01T08:30:18;4.50;99.90
29917;DHT22;16786;49.466;11.068;2023-02-01T08:32:45;4.60;99.90
29917;DHT22;16786;49.466;11.068;2023-02-01T08:35:12;4.60;99.90
29917;DHT22;16786;49.466;11.068;2023-02-01T08:37:40;4.60;99.90
29917;DHT22;16786;49.466;11.068;2023-02-01T08:40:08;4.70;99.90
29917;DHT22;16786;49.466;11.068;2023-02-01T08:42:35;4.70;99.90
29917;DHT22;16786;49.466;11.068;2023-02-01T08:45:19;4.70;99.90
29917;DHT22;16786;49.466;11.068;2023-02-01T08:47:47;4.80;99.90
29917;DHT22;16786;49.466;11.068;2023-02-01T08:50:14;4.80;99.90
29917;DHT22;16786;49.466;11.068;2023-02-01T08:52:41;4.80;99.90
29917;DHT22;16786;49.466;11.068;2023-02-01T08:55:09;4.80;99.90
29917;DHT22;16786;49.466;11.068;2023-02-01T08:57:37;4.80;99.90
29917;DHT22;16786;49.466;11.068;2023-02-01T09:00:07;4.90;99.90
29917;DHT22;16786;49.466;11.068;2023-02-01T09:02:35;4.90;99.90
29917;DHT22;16786;49.466;11.068;2023-02-01T09:05:03;4.90;99.90
29917;DHT22;16786;49.466;11.068;2023-02-01T09:07:32;4.90;99.90
29917;DHT22;16786;49.466;11.068;2023-02-01T09:09:59;4.90;99.90
29917;DHT22;16786;49.466;11.068;2023-02-01T09:12:29;4.90;99.90
29917;DHT22;16786;49.466;11.068;2023-02-01T09:14:57;4.90;99.90
29917;DHT22;16786;49.466;11.068;2023-02-01T09:17:27;4.80;99.90
29917;DHT22;16786;49.466;11.068;2023-02-01T09:20:00;4.90;99.90
29917;DHT22;16786;49.466;11.068;2023-02-01T09:22:27;4.90;99.90
29917;DHT22;16786;49.466;11.068;2023-02-01T09:24:54;4.80;99.90
29917;DHT22;16786;49.466;11.068;2023-02-01T09:27:22;4.80;99.90
29917;DHT22;16786;49.466;11.068;2023-02-01T09:29:50;4.70;99.90
29917;DHT22;16786;49.466;11.068;2023-02-01T09:32:21;4.60;99.90
29917;DHT22;16786;49.466;11.068;2023-02-01T09:34:50;4.40;99.90
29917;DHT22;16786;49.466;11.068;2023-02-01T09:37:17;4.10;99.90
29917;DHT22;16786;49.466;11.068;2023-02-01T09:39:45;3.80;99.90
29917;DHT22;16786;49.466;11.068;2023-02-01T09:47:59;3.50;99.90
29917;DHT22;16786;49.466;11.068;2023-02-01T09:50:38;3.60;99.90
29917;DHT22;16786;49.466;11.068;2023-02-01T09:55:57;3.70;99.90
29917;DHT22;16786;49.466;11.068;2023-02-01T09:58:36;3.90;99.90
29917;DHT22;16786;49.466;11.068;2023-02-01T10:01:20;4.10;99.90
29917;DHT22;16786;49.466;11.068;2023-02-01T10:03:49;4.20;99.90
29917;DHT22;16786;49.466;11.068;2023-02-01T10:06:39;4.20;99.90
29917;DHT22;16786;49.466;11.068;2023-02-01T10:12:00;4.30;99.90
29917;DHT22;16786;49.466;11.068;2023-02-01T10:20:03;4.30;99.90
29917;DHT22;16786;49.466;11.068;2023-02-01T10:22:43;4.30;99.90
29917;DHT22;16786;49.466;11.068;2023-02-01T10:25:54;4.50;99.90
29917;DHT22;16786;49.466;11.068;2023-02-01T10:28:22;4.50;99.90
29917;DHT22;16786;49.466;11.068;2023-02-01T10:30:56;4.50;99.90
29917;DHT22;16786;49.466;11.068;2023-02-01T10:33:36;4.70;99.90
29917;DHT22;16786;49.466;11.068;2023-02-01T10:36:16;4.80;99.90
29917;DHT22;16786;49.466;11.068;2023-02-01T10:38:47;4.90;99.90
29917;DHT22;16786;49.466;11.068;2023-02-01T10:41:17;5.00;99.90
29917;DHT22;16786;49.466;11.068;2023-02-01T10:43:49;5.10;99.90
29917;DHT22;16786;49.466;11.068;2023-02-01T10:46:20;5.10;99.90
29917;DHT22;16786;49.466;11.068;2023-02-01T10:48:49;5.10;99.90
29917;DHT22;16786;49.466;11.068;2023-02-01T10:54:18;5.20;99.90
29917;DHT22;16786;49.466;11.068;2023-02-01T10:56:48;5.10;99.90
29917;DHT22;16786;49.466;11.068;2023-02-01T10:59:19;5.00;99.90
29917;DHT22;16786;49.466;11.068;2023-02-01T11:01:49;4.90;99.90
29917;DHT22;16786;49.466;11.068;2023-02-01T11:04:18;4.80;99.90
29917;DHT22;16786;49.466;11.068;2023-02-01T11:06:51;4.60;99.90
29917;DHT22;16786;49.466;11.068;2023-02-01T11:09:24;4.50;99.90
29917;DHT22;16786;49.466;11.068;2023-02-01T11:16:58;4.50;99.90
29917;DHT22;16786;49.466;11.068;2023-02-01T11:19:28;4.50;99.90
29917;DHT22;16786;49.466;11.068;2023-02-01T11:21:58;4.60;99.90
29917;DHT22;16786;49.466;11.068;2023-02-01T11:24:29;4.60;99.90
29917;DHT22;16786;49.466;11.068;2023-02-01T11:27:02;4.80;99.90
29917;DHT22;16786;49.466;11.068;2023-02-01T11:29:38;4.90;99.90
29917;DHT22;16786;49.466;11.068;2023-02-01T11:32:07;4.90;99.90
29917;DHT22;16786;49.466;11.068;2023-02-01T11:34:40;5.00;99.90
29917;DHT22;16786;49.466;11.068;2023-02-01T11:37:27;5.00;99.90
29917;DHT22;16786;49.466;11.068;2023-02-01T11:39:56;5.10;99.90
29917;DHT22;16786;49.466;11.068;2023-02-01T11:42:24;5.10;99.90
29917;DHT22;16786;49.466;11.068;2023-02-01T11:45:30;5.00;99.90
29917;DHT22;16786;49.466;11.068;2023-02-01T11:47:57;5.10;99.90
29917;DHT22;16786;49.466;11.068;2023-02-01T11:50:42;5.10;99.90
29917;DHT22;16786;49.466;11.068;2023-02-01T12:01:41;5.20;99.90
29917;DHT22;16786;49.466;11.068;2023-02-01T12:06:50;5.10;99.90
29917;DHT22;16786;49.466;11.068;2023-02-01T12:17:57;5.20;99.90
29917;DHT22;16786;49.466;11.068;2023-02-01T12:23:34;5.30;99.90
29917;DHT22;16786;49.466;11.068;2023-02-01T12:32:07;5.20;99.90
29917;DHT22;16786;49.466;11.068;2023-02-01T12:43:07;5.30;99.90
29917;DHT22;16786;49.466;11.068;2023-02-01T12:45:42;5.40;99.90
29917;DHT22;16786;49.466;11.068;2023-02-01T12:51:09;5.40;99.90
29917;DHT22;16786;49.466;11.068;2023-02-01T12:54:05;5.40;99.90
29917;DHT22;16786;49.466;11.068;2023-02-01T12:56:44;5.50;99.90
29917;DHT22;16786;49.466;11.068;2023-02-01T12:59:33;5.50;99.90
29917;DHT22;16786;49.466;11.068;2023-02-01T13:07:43;5.50;99.90
29917;DHT22;16786;49.466;11.068;2023-02-01T13:10:56;5.50;99.90
29917;DHT22;16786;49.466;11.068;2023-02-01T13:15:55;5.40;99.90
29917;DHT22;16786;49.466;11.068;2023-02-01T13:18:37;5.40;99.90
29917;DHT22;16786;49.466;11.068;2023-02-01T13:21:31;5.30;99.90
29917;DHT22;16786;49.466;11.068;2023-02-01T13:24:01;5.20;99.90
29917;DHT22;16786;49.466;11.068;2023-02-01T13:26:28;5.10;99.90
29917;DHT22;16786;49.466;11.068;2023-02-01T13:29:02;5.10;99.90
29917;DHT22;16786;49.466;11.068;2023-02-01T13:31:51;5.00;99.90
29917;DHT22;16786;49.466;11.068;2023-02-01T13:40:36;5.20;99.90
29917;DHT22;16786;49.466;11.068;2023-02-01T13:43:25;5.20;99.90
29917;DHT22;16786;49.466;11.068;2023-02-01T13:45:56;5.20;99.90
29917;DHT22;16786;49.466;11.068;2023-02-01T13:51:15;5.40;99.90
29917;DHT22;16786;49.466;11.068;2023-02-01T13:53:46;5.40;99.90
29917;DHT22;16786;49.466;11.068;2023-02-01T13:56:19;5.50;99.90
29917;DHT22;16786;49.466;11.068;2023-02-01T13:58:48;5.60;99.90
29917;DHT22;16786;49.466;11.068;2023-02-01T14:06:58;5.50;99.90
29917;DHT22;16786;49.466;11.068;2023-02-01T14:09:35;5.50;99.90
29917;DHT22;16786;49.466;11.068;2023-02-01T14:12:42;5.50;99.90
29917;DHT22;16786;49.466;11.068;2023-02-01T14:17:44;5.50;99.90
29917;DHT22;16786;49.466;11.068;2023-02-01T14:20:39;5.40;99.90
29917;DHT22;16786;49.466;11.068;2023-02-01T14:23:16;5.40;99.90
29917;DHT22;16786;49.466;11.068;2023-02-01T14:25:45;5.40;99.90
29917;DHT22;16786;49.466;11.068;2023-02-01T14:28:26;5.40;99.90
29917;DHT22;16786;49.466;11.068;2023-02-01T14:30:57;5.40;99.90
29917;DHT22;16786;49.466;11.068;2023-02-01T14:33:26;5.40;99.90
29917;DHT22;16786;49.466;11.068;2023-02-01T14:38:26;5.40;99.90
29917;DHT22;16786;49.466;11.068;2023-02-01T14:40:54;5.30;99.90
29917;DHT22;16786;49.466;11.068;2023-02-01T14:43:50;5.30;99.90
29917;DHT22;16786;49.466;11.068;2023-02-01T14:46:18;5.20;99.90
29917;DHT22;16786;49.466;11.068;2023-02-01T14:48:46;5.30;99.90
29917;DHT22;16786;49.466;11.068;2023-02-01T14:51:16;5.20;99.90
29917;DHT22;16786;49.466;11.068;2023-02-01T14:53:45;5.20;99.90
29917;DHT22;16786;49.466;11.068;2023-02-01T14:56:16;5.30;99.90
29917;DHT22;16786;49.466;11.068;2023-02-01T14:58:56;5.20;99.90
29917;DHT22;16786;49.466;11.068;2023-02-01T15:01:33;5.20;99.90
29917;DHT22;16786;49.466;11.068;2023-02-01T15:06:49;5.30;99.90
29917;DHT22;16786;49.466;11.068;2023-02-01T15:09:32;5.20;99.90
29917;DHT22;16786;49.466;11.068;2023-02-01T15:14:44;5.20;99.90
29917;DHT22;16786;49.466;11.068;2023-02-01T15:17:25;5.10;99.90
29917;DHT22;16786;49.466;11.068;2023-02-01T15:20:01;5.10;99.90
29917;DHT22;16786;49.466;11.068;2023-02-01T15:22:31;5.10;99.90
29917;DHT22;16786;49.466;11.068;2023-02-01T15:24:59;5.10;99.90
29917;DHT22;16786;49.466;11.068;2023-02-01T15:27:28;5.10;99.90
29917;DHT22;16786;49.466;11.068;2023-02-01T15:30:08;5.10;99.90
29917;DHT22;16786;49.466;11.068;2023-02-01T15:32:42;5.00;99.90
29917;DHT22;16786;49.466;11.068;2023-02-01T15:38:19;5.10;99.90
29917;DHT22;16786;49.466;11.068;2023-02-01T15:43:36;5.10;99.90
29917;DHT22;16786;49.466;11.068;2023-02-01T15:46:15;5.20;99.90
29917;DHT22;16786;49.466;11.068;2023-02-01T15:48:51;5.10;99.90
29917;DHT22;16786;49.466;11.068;2023-02-01T15:51:23;5.10;99.90
29917;DHT22;16786;49.466;11.068;2023-02-01T15:53:55;5.10;99.90
29917;DHT22;16786;49.466;11.068;2023-02-01T15:56:25;5.10;99.90
29917;DHT22;16786;49.466;11.068;2023-02-01T15:58:59;5.10;99.90
29917;DHT22;16786;49.466;11.068;2023-02-01T16:01:28;5.10;99.90
29917;DHT22;16786;49.466;11.068;2023-02-01T16:04:23;5.20;99.90
29917;DHT22;16786;49.466;11.068;2023-02-01T16:06:57;5.10;99.90
29917;DHT22;16786;49.466;11.068;2023-02-01T16:09:48;5.10;99.90
29917;DHT22;16786;49.466;11.068;2023-02-01T16:15:08;5.10;99.90
29917;DHT22;16786;49.466;11.068;2023-02-01T16:17:35;5.10;99.90
29917;DHT22;16786;49.466;11.068;2023-02-01T16:20:03;5.10;99.90
29917;DHT22;16786;49.466;11.068;2023-02-01T16:22:30;5.10;99.90
29917;DHT22;16786;49.466;11.068;2023-02-01T16:24:57;5.10;99.90
29917;DHT22;16786;49.466;11.068;2023-02-01T16:27:25;5.20;99.90
29917;DHT22;16786;49.466;11.068;2023-02-01T16:29:52;5.10;99.90
29917;DHT22;16786;49.466;11.068;2023-02-01T16:32:22;5.10;99.90
29917;DHT22;16786;49.466;11.068;2023-02-01T16:34:50;5.10;99.90
29917;DHT22;16786;49.466;11.068;2023-02-01T16:37:22;5.00;99.90
29917;DHT22;16786;49.466;11.068;2023-02-01T16:39:50;5.10;99.90
29917;DHT22;16786;49.466;11.068;2023-02-01T16:42:18;5.10;99.90
29917;DHT22;16786;49.466;11.068;2023-02-01T16:44:45;5.10;99.90
29917;DHT22;16786;49.466;11.068;2023-02-01T16:47:21;5.10;99.90
29917;DHT22;16786;49.466;11.068;2023-02-01T16:49:49;5.10;99.90
29917;DHT22;16786;49.466;11.068;2023-02-01T16:52:22;5.10;99.90
29917;DHT22;16786;49.466;11.068;2023-02-01T16:54:51;5.10;99.90
29917;DHT22;16786;49.466;11.068;2023-02-01T16:57:21;5.10;99.90
29917;DHT22;16786;49.466;11.068;2023-02-01T16:59:53;5.10;99.90
29917;DHT22;16786;49.466;11.068;2023-02-01T17:02:24;5.10;99.90
29917;DHT22;16786;49.466;11.068;2023-02-01T17:04:52;5.10;99.90
29917;DHT22;16786;49.466;11.068;2023-02-01T17:07:20;5.20;99.90
29917;DHT22;16786;49.466;11.068;2023-02-01T17:09:48;5.20;99.90
29917;DHT22;16786;49.466;11.068;2023-02-01T17:12:24;5.10;99.90
29917;DHT22;16786;49.466;11.068;2023-02-01T17:14:53;5.20;99.90
29917;DHT22;16786;49.466;11.068;2023-02-01T17:17:32;5.20;99.90
29917;DHT22;16786;49.466;11.068;2023-02-01T17:20:05;5.20;99.90
29917;DHT22;16786;49.466;11.068;2023-02-01T17:22:33;5.20;99.90
29917;DHT22;16786;49.466;11.068;2023-02-01T17:25:01;5.30;99.90
29917;DHT22;16786;49.466;11.068;2023-02-01T17:27:29;5.20;99.90
29917;DHT22;16786;49.466;11.068;2023-02-01T17:29:57;5.20;99.90
29917;DHT22;16786;49.466;11.068;2023-02-01T17:32:28;5.20;99.90
29917;DHT22;16786;49.466;11.068;2023-02-01T17:34:56;5.20;99.90
29917;DHT22;16786;49.466;11.068;2023-02-01T17:37:28;5.20;99.90
29917;DHT22;16786;49.466;11.068;2023-02-01T17:39:57;5.20;99.90
29917;DHT22;16786;49.466;11.068;2023-02-01T17:42:29;5.20;99.90
29917;DHT22;16786;49.466;11.068;2023-02-01T17:45:42;5.20;99.90
29917;DHT22;16786;49.466;11.068;2023-02-01T17:48:08;5.20;99.90
29917;DHT22;16786;49.466;11.068;2023-02-01T17:50:36;5.20;99.90
29917;DHT22;16786;49.466;11.068;2023-02-01T17:53:05;5.20;99.90
29917;DHT22;16786;49.466;11.068;2023-02-01T17:55:39;5.30;99.90
29917;DHT22;16786;49.466;11.068;2023-02-01T17:58:09;5.20;99.90
29917;DHT22;16786;49.466;11.068;2023-02-01T18:00:37;5.20;99.90
29917;DHT22;16786;49.466;11.068;2023-02-01T18:03:05;5.20;99.90
29917;DHT22;16786;49.466;11.068;2023-02-01T18:05:38;5.20;99.90
29917;DHT22;16786;49.466;11.068;2023-02-01T18:08:07;5.30;99.90
29917;DHT22;16786;49.466;11.068;2023-02-01T18:10:34;5.20;99.90
29917;DHT22;16786;49.466;11.068;2023-02-01T18:13:02;5.20;99.90
29917;DHT22;16786;49.466;11.068;2023-02-01T18:15:30;5.10;99.90
29917;DHT22;16786;49.466;11.068;2023-02-01T18:17:58;5.20;99.90